METAR Data
IDs: Format: Raw Decoded Include TAF

Data at: 1154 UTC 26 Feb 2021

EHBK 261125Z AUTO 35008KT 320V030 9999 SCT022 BKN025 OVC030 10/05 Q1034 NOSIG